createdAt,value
2015-11-12T00:00:26.475Z,11.4
2015-11-12T00:01:26.416Z,11.4
2015-11-12T00:02:26.372Z,11.4
2015-11-12T00:03:26.327Z,11.4
2015-11-12T00:04:26.268Z,11.4
2015-11-12T00:05:26.224Z,11.4
2015-11-12T00:06:26.164Z,11.3
2015-11-12T00:07:26.119Z,11.3
2015-11-12T00:08:26.060Z,11.3
2015-11-12T00:09:26.016Z,11.3
2015-11-12T00:10:25.955Z,11.3
2015-11-12T00:11:25.912Z,11.3
2015-11-12T00:12:25.868Z,11.2
2015-11-12T00:13:25.808Z,11.3
2015-11-12T00:14:25.748Z,11.3
2015-11-12T00:15:25.735Z,11.3
2015-11-12T00:16:25.659Z,11.3
2015-11-12T00:17:25.600Z,11.4
2015-11-12T00:18:25.556Z,11.4
2015-11-12T00:19:25.496Z,11.4
2015-11-12T00:20:25.451Z,11.4
2015-11-12T00:21:25.393Z,11.4
2015-11-12T00:22:25.348Z,11.4
2015-11-12T00:23:25.288Z,11.5
2015-11-12T00:24:25.244Z,11.5
2015-11-12T00:25:25.184Z,11.4
2015-11-12T00:26:25.140Z,11.4
2015-11-12T00:27:25.096Z,11.4
2015-11-12T00:28:25.036Z,11.4
2015-11-12T00:29:24.992Z,11.4
2015-11-12T00:30:24.932Z,11.4
2015-11-12T00:31:24.887Z,11.5
2015-11-12T00:32:24.844Z,11.4
2015-11-12T00:33:24.784Z,11.5
2015-11-12T00:34:24.725Z,11.5
2015-11-12T00:35:24.680Z,11.4
2015-11-12T00:36:24.633Z,11.4
2015-11-12T00:37:24.574Z,11.3
2015-11-12T00:38:24.529Z,11.3
2015-11-12T00:39:24.470Z,11.3
2015-11-12T00:40:24.425Z,11.4
2015-11-12T00:41:24.381Z,11.4
2015-11-12T00:42:24.322Z,11.4
2015-11-12T00:43:24.261Z,11.4
2015-11-12T00:44:24.217Z,11.4
2015-11-12T00:45:24.173Z,11.4
2015-11-12T00:46:24.114Z,11.3
2015-11-12T00:47:24.086Z,11.2
2015-11-12T00:48:24.010Z,11.2
2015-11-12T00:49:23.966Z,11.2
2015-11-12T00:50:23.906Z,11.1
2015-11-12T00:51:23.862Z,11.1
2015-11-12T00:52:23.803Z,11.1
2015-11-12T00:53:23.758Z,11.1
2015-11-12T00:54:23.703Z,11.2
2015-11-12T00:55:23.659Z,11.2
2015-11-12T00:56:23.599Z,11.3
2015-11-12T00:57:23.555Z,11.3
2015-11-12T00:58:23.510Z,11.3
2015-11-12T00:59:23.451Z,11.3
2015-11-12T01:00:23.406Z,11.3
2015-11-12T01:01:23.347Z,11.3
2015-11-12T01:02:23.303Z,11.3
2015-11-12T01:03:23.244Z,11.3
2015-11-12T01:04:23.199Z,11.3
2015-11-12T01:05:23.139Z,11.3
2015-11-12T01:06:23.095Z,11.3
2015-11-12T01:07:23.051Z,11.2
2015-11-12T01:08:22.991Z,11.2
2015-11-12T01:09:22.946Z,11.3
2015-11-12T01:10:22.888Z,11.2
2015-11-12T01:11:22.843Z,11.2
2015-11-12T01:12:22.783Z,11.2
2015-11-12T01:13:22.740Z,11.3
2015-11-12T01:14:22.679Z,11.2
2015-11-12T01:15:22.635Z,11.2
2015-11-12T01:16:22.576Z,11.3
2015-11-12T01:17:22.531Z,11.3
2015-11-12T01:18:22.487Z,11.2
2015-11-12T01:19:22.428Z,11.2
2015-11-12T01:20:22.384Z,11.2
2015-11-12T01:21:22.323Z,11.2
2015-11-12T01:22:22.279Z,11.2
2015-11-12T01:23:22.220Z,11.2
2015-11-12T01:24:22.175Z,11.2
2015-11-12T01:25:22.115Z,11.2
2015-11-12T01:26:22.072Z,11.1
2015-11-12T01:27:22.027Z,11.2
2015-11-12T01:28:21.967Z,11.1
2015-11-12T01:29:21.923Z,11.1
2015-11-12T01:30:21.864Z,11.2
2015-11-12T01:31:21.819Z,11.2
2015-11-12T01:32:21.760Z,11.2
2015-11-12T01:33:21.716Z,11.1
2015-11-12T01:34:21.656Z,11.1
2015-11-12T01:35:21.611Z,11.1
2015-11-12T01:36:21.552Z,11.1
2015-11-12T01:37:21.508Z,11.1
2015-11-12T01:38:21.448Z,11.1
2015-11-12T01:39:21.403Z,11.2
2015-11-12T01:40:21.360Z,11.2
2015-11-12T01:41:21.300Z,11.2
2015-11-12T01:42:21.255Z,11.1
2015-11-12T01:43:21.196Z,11.2
2015-11-12T01:44:21.152Z,11.2
2015-11-12T01:45:21.089Z,11.2
2015-11-12T01:46:21.045Z,11.2
2015-11-12T01:47:20.986Z,11.2
2015-11-12T01:48:20.941Z,11.2
2015-11-12T01:49:20.881Z,11.1
2015-11-12T01:50:20.838Z,11.1
2015-11-12T01:51:20.793Z,11.1
2015-11-12T01:52:20.733Z,11.1
2015-11-12T01:53:20.673Z,11.2
2015-11-12T01:54:20.630Z,11.2
2015-11-12T01:55:20.585Z,11.2
2015-11-12T01:56:20.525Z,11.2
2015-11-12T01:57:20.482Z,11.2
2015-11-12T01:58:20.421Z,11.1
2015-11-12T01:59:20.378Z,11.1
2015-11-12T02:00:20.319Z,11.2
2015-11-12T02:01:20.291Z,11.2
2015-11-12T02:02:20.214Z,11.2
2015-11-12T02:03:20.176Z,11.3
2015-11-12T02:04:20.117Z,11.3
2015-11-12T02:05:20.072Z,11.3
2015-11-12T02:06:20.013Z,11.3
2015-11-12T02:07:19.969Z,11.3
2015-11-12T02:08:19.909Z,11.3
2015-11-12T02:09:19.865Z,11.3
2015-11-12T02:10:19.805Z,11.3
2015-11-12T02:11:19.761Z,11.3
2015-11-12T02:12:19.701Z,11.3
2015-11-12T02:13:19.657Z,11.3
2015-11-12T02:14:19.628Z,11.3
2015-11-12T02:15:19.553Z,11.2
2015-11-12T02:16:19.508Z,11.2
2015-11-12T02:17:19.449Z,11.2
2015-11-12T02:18:19.389Z,11.1
2015-11-12T02:19:19.345Z,11.1
2015-11-12T02:20:19.285Z,11.1
2015-11-12T02:21:19.242Z,11
2015-11-12T02:22:19.182Z,11.1
2015-11-12T02:23:19.138Z,11.1
2015-11-12T02:24:19.077Z,11.1
2015-11-12T02:25:19.033Z,11.1
2015-11-12T02:26:18.974Z,11.1
2015-11-12T02:27:18.930Z,11.2
2015-11-12T02:28:18.869Z,11.1
2015-11-12T02:29:18.810Z,11.2
2015-11-12T02:30:18.766Z,11.2
2015-11-12T02:31:18.706Z,11.2
2015-11-12T02:32:18.677Z,11.2
2015-11-12T02:33:18.602Z,11.2
2015-11-12T02:34:18.558Z,11.2
2015-11-12T02:35:18.498Z,11.2
2015-11-12T02:36:18.438Z,11.2
2015-11-12T02:37:18.394Z,11.2
2015-11-12T02:38:18.350Z,11.1
2015-11-12T02:39:18.290Z,11.2
2015-11-12T02:40:18.231Z,11.2
2015-11-12T02:41:18.187Z,11.2
2015-11-12T02:42:18.126Z,11.2
2015-11-12T02:43:18.067Z,11.2
2015-11-12T02:44:18.023Z,11.1
2015-11-12T02:45:17.963Z,11.2
2015-11-12T02:46:17.918Z,11.2
2015-11-12T02:47:17.859Z,11.2
2015-11-12T02:48:17.812Z,11.2
2015-11-12T02:49:17.753Z,11.3
2015-11-12T02:50:17.709Z,11.3
2015-11-12T02:51:17.648Z,11.3
2015-11-12T02:52:17.589Z,11.3
2015-11-12T02:53:17.545Z,11.3
2015-11-12T02:54:17.501Z,11.2
2015-11-12T02:55:17.443Z,11.2
2015-11-12T02:56:17.587Z,11.2
2015-11-12T02:57:17.344Z,11.1
2015-11-12T02:58:17.284Z,11.1
2015-11-12T02:59:17.224Z,11.1
2015-11-12T03:00:17.180Z,11.1
2015-11-12T03:01:17.135Z,11.1
2015-11-12T03:02:17.082Z,11.2
2015-11-12T03:03:17.022Z,11.2
2015-11-12T03:04:16.962Z,11.2
2015-11-12T03:05:16.919Z,11.2
2015-11-12T03:06:16.858Z,11.2
2015-11-12T03:07:16.814Z,11.2
2015-11-12T03:08:16.755Z,11.3
2015-11-12T03:09:16.710Z,11.3
2015-11-12T03:10:16.650Z,11.3
2015-11-12T03:11:16.606Z,11.3
2015-11-12T03:12:16.547Z,11.4
2015-11-12T03:13:16.502Z,11.4
2015-11-12T03:14:16.444Z,11.5
2015-11-12T03:15:16.398Z,11.5
2015-11-12T03:16:16.338Z,11.5
2015-11-12T03:17:16.294Z,11.5
2015-11-12T03:18:16.235Z,11.5
2015-11-12T03:19:16.191Z,11.5
2015-11-12T03:20:16.130Z,11.5
2015-11-12T03:21:16.088Z,11.5
2015-11-12T03:22:16.027Z,11.6
2015-11-12T03:23:15.983Z,11.6
2015-11-12T03:24:15.923Z,11.6
2015-11-12T03:25:15.863Z,11.6
2015-11-12T03:26:15.819Z,11.6
2015-11-12T03:27:15.775Z,11.6
2015-11-12T03:28:15.700Z,11.5
2015-11-12T03:29:15.655Z,11.5
2015-11-12T03:30:15.611Z,11.6
2015-11-12T03:31:15.552Z,11.6
2015-11-12T03:32:15.507Z,11.6
2015-11-12T03:33:15.463Z,11.5
2015-11-12T03:34:15.404Z,11.6
2015-11-12T03:35:15.344Z,11.6
2015-11-12T03:36:15.299Z,11.6
2015-11-12T03:37:15.239Z,11.6
2015-11-12T03:38:15.180Z,11.5
2015-11-12T03:39:15.136Z,11.6
2015-11-12T03:40:15.076Z,11.6
2015-11-12T03:41:15.032Z,11.5
2015-11-12T03:42:14.973Z,11.6
2015-11-12T03:43:14.928Z,11.5
2015-11-12T03:44:14.884Z,11.5
2015-11-12T03:45:14.824Z,11.5
2015-11-12T03:46:14.780Z,11.5
2015-11-12T03:47:14.720Z,11.5
2015-11-12T03:48:14.676Z,11.5
2015-11-12T03:49:14.617Z,11.6
2015-11-12T03:50:14.556Z,11.5
2015-11-12T03:51:14.513Z,11.5
2015-11-12T03:52:14.453Z,11.6
2015-11-12T03:53:14.408Z,11.6
2015-11-12T03:54:14.345Z,11.5
2015-11-12T03:55:14.302Z,11.6
2015-11-12T03:56:14.242Z,11.6
2015-11-12T03:57:14.214Z,11.6
2015-11-12T03:58:14.138Z,11.6
2015-11-12T03:59:14.094Z,11.6
2015-11-12T04:00:14.034Z,11.6
2015-11-12T04:01:13.990Z,11.5
2015-11-12T04:02:13.930Z,11.6
2015-11-12T04:03:13.886Z,11.6
2015-11-12T04:04:13.826Z,11.6
2015-11-12T04:05:13.782Z,11.6
2015-11-12T04:06:13.722Z,11.6
2015-11-12T04:07:13.678Z,11.6
2015-11-12T04:08:13.634Z,11.6
2015-11-12T04:09:13.574Z,11.6
2015-11-12T04:10:13.514Z,11.5
2015-11-12T04:11:13.471Z,11.5
2015-11-12T04:12:13.427Z,11.6
2015-11-12T04:13:13.366Z,11.5
2015-11-12T04:14:13.307Z,11.6
2015-11-12T04:15:13.263Z,11.6
2015-11-12T04:16:13.218Z,11.6
2015-11-12T04:17:13.158Z,11.6
2015-11-12T04:18:13.098Z,11.6
2015-11-12T04:19:13.055Z,11.7
2015-11-12T04:20:13.011Z,11.7
2015-11-12T04:21:12.951Z,11.7
2015-11-12T04:22:12.891Z,11.7
2015-11-12T04:23:12.847Z,11.7
2015-11-12T04:24:12.802Z,11.7
2015-11-12T04:25:12.743Z,11.7
2015-11-12T04:26:12.683Z,11.7
2015-11-12T04:27:12.640Z,11.7
2015-11-12T04:28:12.579Z,11.7
2015-11-12T04:29:12.535Z,11.7
2015-11-12T04:30:12.476Z,11.7
2015-11-12T04:31:12.431Z,11.7
2015-11-12T04:32:12.371Z,11.7
2015-11-12T04:33:12.327Z,11.7
2015-11-12T04:34:12.267Z,11.7
2015-11-12T04:35:12.224Z,11.7
2015-11-12T04:36:12.164Z,11.8
2015-11-12T04:37:12.120Z,11.7
2015-11-12T04:38:12.060Z,11.7
2015-11-12T04:39:12.016Z,11.7
2015-11-12T04:40:11.956Z,11.8
2015-11-12T04:41:11.912Z,11.7
2015-11-12T04:42:11.852Z,11.7
2015-11-12T04:43:11.808Z,11.7
2015-11-12T04:44:11.748Z,11.7
2015-11-12T04:45:11.719Z,11.7
2015-11-12T04:46:11.660Z,11.7
2015-11-12T04:47:11.601Z,11.7
2015-11-12T04:48:11.540Z,11.7
2015-11-12T04:49:11.495Z,11.8
2015-11-12T04:50:11.436Z,11.7
2015-11-12T04:51:11.392Z,11.7
2015-11-12T04:52:11.333Z,11.7
2015-11-12T04:53:11.289Z,11.7
2015-11-12T04:54:11.228Z,11.7
2015-11-12T04:55:11.184Z,11.7
2015-11-12T04:56:11.125Z,11.7
2015-11-12T04:57:11.081Z,11.7
2015-11-12T04:58:11.021Z,11.7
2015-11-12T04:59:10.975Z,11.7
2015-11-12T05:00:10.914Z,11.7
2015-11-12T05:01:10.886Z,11.7
2015-11-12T05:02:10.810Z,11.7
2015-11-12T05:03:10.766Z,11.8
2015-11-12T05:04:10.706Z,11.8
2015-11-12T05:05:10.662Z,11.7
2015-11-12T05:06:10.603Z,11.7
2015-11-12T05:07:10.557Z,11.7
2015-11-12T05:08:10.499Z,11.7
2015-11-12T05:09:10.470Z,11.7
2015-11-12T05:10:10.394Z,11.7
2015-11-12T05:11:10.350Z,11.7
2015-11-12T05:12:10.291Z,11.8
2015-11-12T05:13:10.231Z,11.8
2015-11-12T05:14:10.186Z,11.8
2015-11-12T05:15:10.143Z,11.8
2015-11-12T05:16:10.083Z,11.8
2015-11-12T05:17:10.023Z,11.8
2015-11-12T05:18:09.979Z,11.8
2015-11-12T05:19:09.918Z,11.8
2015-11-12T05:20:09.874Z,11.8
2015-11-12T05:21:09.815Z,11.8
2015-11-12T05:22:09.770Z,11.8
2015-11-12T05:23:09.711Z,11.8
2015-11-12T05:24:09.668Z,11.8
2015-11-12T05:25:09.607Z,11.8
2015-11-12T05:26:09.563Z,11.8
2015-11-12T05:27:09.503Z,11.7
2015-11-12T05:28:09.460Z,11.7
2015-11-12T05:29:09.399Z,11.8
2015-11-12T05:30:09.355Z,11.8
2015-11-12T05:31:09.296Z,11.8
2015-11-12T05:32:09.251Z,11.8
2015-11-12T05:33:09.254Z,11.8
2015-11-12T05:34:09.137Z,11.8
2015-11-12T05:35:09.064Z,11.8
2015-11-12T05:36:09.008Z,11.8
2015-11-12T05:37:08.952Z,11.8
2015-11-12T05:38:08.928Z,11.8
2015-11-12T05:39:08.815Z,11.8
2015-11-12T05:40:08.768Z,11.8
2015-11-12T05:41:08.703Z,11.7
2015-11-12T05:42:08.655Z,11.8
2015-11-12T05:43:08.591Z,11.8
2015-11-12T05:44:08.546Z,11.8
2015-11-12T05:45:08.484Z,11.8
2015-11-12T05:46:08.438Z,11.7
2015-11-12T05:47:08.377Z,11.7
2015-11-12T05:48:08.331Z,11.7
2015-11-12T05:49:08.286Z,11.8
2015-11-12T05:50:08.210Z,11.8
2015-11-12T05:51:08.165Z,11.8
2015-11-12T05:52:08.120Z,11.8
2015-11-12T05:53:08.061Z,11.7
2015-11-12T05:54:08.000Z,11.7
2015-11-12T05:55:07.956Z,11.7
2015-11-12T05:56:07.913Z,11.7
2015-11-12T05:57:07.852Z,11.7
2015-11-12T05:58:07.808Z,11.8
2015-11-12T05:59:07.748Z,11.7
2015-11-12T06:00:07.701Z,11.7
2015-11-12T06:01:07.641Z,11.7
2015-11-12T06:02:07.582Z,11.6
2015-11-12T06:03:07.537Z,11.7
2015-11-12T06:04:07.477Z,11.7
2015-11-12T06:05:07.435Z,11.7
2015-11-12T06:06:07.374Z,11.7
2015-11-12T06:07:07.330Z,11.7
2015-11-12T06:08:07.270Z,11.7
2015-11-12T06:09:07.226Z,11.7
2015-11-12T06:10:07.166Z,11.7
2015-11-12T06:11:07.122Z,11.7
2015-11-12T06:12:07.063Z,11.7
2015-11-12T06:13:07.018Z,11.7
2015-11-12T06:14:06.959Z,11.8
2015-11-12T06:15:06.915Z,11.8
2015-11-12T06:16:06.870Z,11.9
2015-11-12T06:17:06.810Z,11.8
2015-11-12T06:18:06.766Z,11.9
2015-11-12T06:19:06.707Z,11.9
2015-11-12T06:20:06.646Z,11.9
2015-11-12T06:21:06.603Z,11.9
2015-11-12T06:22:06.543Z,11.9
2015-11-12T06:23:06.498Z,11.9
2015-11-12T06:24:06.439Z,11.9
2015-11-12T06:25:06.395Z,11.9
2015-11-12T06:26:06.351Z,11.9
2015-11-12T06:27:06.290Z,12
2015-11-12T06:28:06.248Z,11.9
2015-11-12T06:29:06.187Z,12
2015-11-12T06:30:06.128Z,12
2015-11-12T06:31:06.083Z,12
2015-11-12T06:32:06.039Z,12
2015-11-12T06:33:05.979Z,12
2015-11-12T06:34:05.935Z,12
2015-11-12T06:35:05.875Z,12
2015-11-12T06:36:05.831Z,12
2015-11-12T06:37:05.772Z,12
2015-11-12T06:38:05.728Z,12
2015-11-12T06:39:05.667Z,12
2015-11-12T06:40:05.623Z,12
2015-11-12T06:41:05.563Z,12
2015-11-12T06:42:05.519Z,12
2015-11-12T06:43:05.475Z,12
2015-11-12T06:44:05.416Z,12
2015-11-12T06:45:05.356Z,11.9
2015-11-12T06:46:05.311Z,11.9
2015-11-12T06:47:05.252Z,11.9
2015-11-12T06:48:05.208Z,11.9
2015-11-12T06:49:05.180Z,11.9
2015-11-12T06:50:05.103Z,12
2015-11-12T06:51:05.044Z,12
2015-11-12T06:52:05.000Z,11.9
2015-11-12T06:53:04.941Z,11.9
2015-11-12T06:54:04.897Z,11.8
2015-11-12T06:55:04.836Z,11.8
2015-11-12T06:56:04.792Z,11.8
2015-11-12T06:57:04.733Z,11.8
2015-11-12T06:58:04.688Z,11.8
2015-11-12T06:59:04.627Z,11.8
2015-11-12T07:00:04.584Z,11.9
2015-11-12T07:01:04.521Z,11.9
2015-11-12T07:02:04.477Z,11.8
2015-11-12T07:03:04.418Z,11.9
2015-11-12T07:04:04.373Z,11.9
2015-11-12T07:05:04.313Z,11.9
2015-11-12T07:06:04.269Z,11.9
2015-11-12T07:07:04.210Z,11.9
2015-11-12T07:08:04.165Z,11.9
2015-11-12T07:09:04.107Z,11.9
2015-11-12T07:10:04.062Z,11.9
2015-11-12T07:11:04.001Z,11.8
2015-11-12T07:12:03.958Z,11.8
2015-11-12T07:13:03.898Z,11.9
2015-11-12T07:14:03.854Z,11.9
2015-11-12T07:15:03.794Z,11.9
2015-11-12T07:16:03.751Z,11.9
2015-11-12T07:17:03.690Z,11.9
2015-11-12T07:18:03.646Z,12
2015-11-12T07:19:03.587Z,12
2015-11-12T07:20:03.542Z,12
2015-11-12T07:21:03.482Z,12
2015-11-12T07:22:03.438Z,12
2015-11-12T07:23:03.394Z,12
2015-11-12T07:24:03.335Z,12
2015-11-12T07:25:03.275Z,12
2015-11-12T07:26:03.231Z,12.1
2015-11-12T07:27:03.170Z,12.1
2015-11-12T07:28:03.142Z,12.1
2015-11-12T07:29:03.082Z,12.1
2015-11-12T07:30:03.023Z,12.1
2015-11-12T07:31:02.978Z,12.1
2015-11-12T07:32:02.934Z,12.1
2015-11-12T07:33:02.875Z,12.1
2015-11-12T07:34:02.831Z,12.2
2015-11-12T07:35:02.770Z,12.2
2015-11-12T07:36:02.726Z,12.2
2015-11-12T07:37:02.667Z,12.2
2015-11-12T07:38:02.623Z,12.2
2015-11-12T07:39:02.564Z,12.2
2015-11-12T07:40:02.519Z,12.2
2015-11-12T07:41:02.458Z,12.2
2015-11-12T07:42:02.414Z,12.2
2015-11-12T07:43:02.370Z,12.2
2015-11-12T07:44:02.310Z,12.2
2015-11-12T07:45:02.267Z,12.2
2015-11-12T07:46:02.207Z,12.1
2015-11-12T07:47:02.163Z,12.2
2015-11-12T07:48:02.102Z,12.2
2015-11-12T07:49:02.059Z,12.1
2015-11-12T07:50:02.015Z,12.2
2015-11-12T07:51:01.955Z,12.2
2015-11-12T07:52:01.910Z,12.2
2015-11-12T07:53:01.851Z,12.2
2015-11-12T07:54:01.807Z,12.2
2015-11-12T07:55:01.763Z,12.2
2015-11-12T07:56:01.703Z,12.2
2015-11-12T07:57:01.643Z,12.2
2015-11-12T07:58:01.599Z,12.2
2015-11-12T07:59:01.555Z,12.2
2015-11-12T08:00:01.510Z,12.2
2015-11-12T08:01:01.451Z,12.3
2015-11-12T08:02:01.407Z,12.2
2015-11-12T08:03:01.347Z,12.3
2015-11-12T08:04:01.287Z,12.2
2015-11-12T08:05:01.243Z,12.3
2015-11-12T08:06:01.196Z,12.3
2015-11-12T08:07:01.137Z,12.3
2015-11-12T08:08:01.093Z,12.3
2015-11-12T08:09:01.032Z,12.3
2015-11-12T08:10:00.988Z,12.4
2015-11-12T08:11:00.929Z,12.4
2015-11-12T08:12:00.884Z,12.4
2015-11-12T08:13:00.840Z,12.5
2015-11-12T08:14:00.780Z,12.5
2015-11-12T08:15:00.736Z,12.5
2015-11-12T08:16:00.677Z,12.5
2015-11-12T08:17:00.632Z,12.6
2015-11-12T08:18:00.573Z,12.6
2015-11-12T08:19:00.528Z,12.6
2015-11-12T08:20:00.484Z,12.6
2015-11-12T08:21:00.440Z,12.6
2015-11-12T08:22:00.381Z,12.6
2015-11-12T08:23:00.320Z,12.7
2015-11-12T08:24:00.276Z,12.7
2015-11-12T08:25:00.217Z,12.7
2015-11-12T08:26:00.172Z,12.7
2015-11-12T08:27:00.128Z,12.7
2015-11-12T08:28:00.069Z,12.7
2015-11-12T08:29:00.025Z,12.8
2015-11-12T08:29:59.965Z,12.8
2015-11-12T08:30:59.905Z,12.8
2015-11-12T08:31:59.861Z,12.8
2015-11-12T08:32:59.801Z,12.8
2015-11-12T08:33:59.757Z,12.8
2015-11-12T08:34:59.697Z,12.8
2015-11-12T08:35:59.653Z,12.8
2015-11-12T08:36:59.608Z,12.8
2015-11-12T08:37:59.549Z,12.8
2015-11-12T08:38:59.489Z,12.8
2015-11-12T08:39:59.444Z,12.8
2015-11-12T08:40:59.385Z,12.8
2015-11-12T08:41:59.342Z,12.9
2015-11-12T08:42:59.281Z,12.9
2015-11-12T08:43:59.237Z,12.9
2015-11-12T08:44:59.178Z,12.9
2015-11-12T08:45:59.133Z,12.9
2015-11-12T08:46:59.074Z,12.8
2015-11-12T08:47:59.014Z,12.8
2015-11-12T08:48:58.969Z,12.9
2015-11-12T08:49:58.910Z,12.8
2015-11-12T08:50:58.866Z,12.9
2015-11-12T08:51:58.805Z,12.9
2015-11-12T08:52:58.762Z,12.9
2015-11-12T08:53:58.717Z,12.9
2015-11-12T08:54:58.657Z,12.9
2015-11-12T08:55:58.598Z,12.9
2015-11-12T08:56:58.553Z,12.9
2015-11-12T08:57:58.494Z,12.9
2015-11-12T08:58:58.449Z,12.9
2015-11-12T08:59:58.390Z,13
2015-11-12T09:00:58.346Z,12.9
2015-11-12T09:01:58.287Z,13
2015-11-12T09:02:58.242Z,13
2015-11-12T09:03:58.181Z,13
2015-11-12T09:04:58.122Z,13
2015-11-12T09:05:58.078Z,13
2015-11-12T09:06:58.018Z,13
2015-11-12T09:07:57.973Z,13.1
2015-11-12T09:08:57.914Z,13.1
2015-11-12T09:09:57.870Z,13.1
2015-11-12T09:10:57.810Z,13.1
2015-11-12T09:11:57.766Z,13.1
2015-11-12T09:12:57.706Z,13.1
2015-11-12T09:13:57.662Z,13.1
2015-11-12T09:14:57.602Z,13.1
2015-11-12T09:15:57.542Z,13.2
2015-11-12T09:16:57.498Z,13.2
2015-11-12T09:17:57.454Z,13.3
2015-11-12T09:18:57.394Z,13.3
2015-11-12T09:19:57.350Z,13.4
2015-11-12T09:20:57.305Z,13.4
2015-11-12T09:21:57.230Z,13.6
2015-11-12T09:22:57.186Z,13.7
2015-11-12T09:23:57.127Z,13.8
2015-11-12T09:24:57.082Z,13.8
2015-11-12T09:25:57.022Z,13.9
2015-11-12T09:26:56.979Z,13.9
2015-11-12T09:27:56.919Z,13.9
2015-11-12T09:28:56.874Z,13.9
2015-11-12T09:29:56.815Z,13.9
2015-11-12T09:30:56.771Z,13.9
2015-11-12T09:31:56.711Z,13.9
2015-11-12T09:32:56.666Z,13.8
2015-11-12T09:33:56.607Z,13.7
2015-11-12T09:34:56.547Z,13.7
2015-11-12T09:35:56.503Z,13.8
2015-11-12T09:36:56.459Z,13.8
2015-11-12T09:37:56.415Z,13.8
2015-11-12T09:38:56.354Z,13.8
2015-11-12T09:39:56.295Z,13.8
2015-11-12T09:40:56.248Z,13.7
2015-11-12T09:41:56.188Z,13.7
2015-11-12T09:42:56.145Z,13.7
2015-11-12T09:43:56.084Z,13.7
2015-11-12T09:44:56.040Z,13.7
2015-11-12T09:45:55.995Z,13.6
2015-11-12T09:46:55.936Z,13.7
2015-11-12T09:47:55.876Z,13.7
2015-11-12T09:48:55.817Z,13.6
2015-11-12T09:49:55.773Z,13.6
2015-11-12T09:50:55.712Z,13.6
2015-11-12T09:51:55.669Z,13.6
2015-11-12T09:52:55.625Z,13.6
2015-11-12T09:53:55.564Z,13.5
2015-11-12T09:54:55.505Z,13.5
2015-11-12T09:55:55.461Z,13.5
2015-11-12T09:56:55.401Z,13.6
2015-11-12T09:57:55.357Z,13.6
2015-11-12T09:58:55.298Z,13.6
2015-11-12T09:59:55.253Z,13.6
2015-11-12T10:00:55.193Z,13.6
2015-11-12T10:01:55.149Z,13.6
2015-11-12T10:02:55.089Z,13.6
2015-11-12T10:03:55.044Z,13.7
2015-11-12T10:04:54.986Z,13.7
2015-11-12T10:05:54.941Z,13.7
2015-11-12T10:06:54.881Z,13.7
2015-11-12T10:07:54.838Z,13.7
2015-11-12T10:08:54.777Z,13.7
2015-11-12T10:09:54.718Z,13.6
2015-11-12T10:10:54.674Z,13.7
2015-11-12T10:11:54.613Z,13.7
2015-11-12T10:12:54.569Z,13.7
2015-11-12T10:13:54.510Z,13.7
2015-11-12T10:14:54.466Z,13.7
2015-11-12T10:15:54.422Z,13.7
2015-11-12T10:16:54.362Z,13.6
2015-11-12T10:17:54.302Z,13.6
2015-11-12T10:18:54.258Z,13.6
2015-11-12T10:19:54.198Z,13.6
2015-11-12T10:20:54.154Z,13.7
2015-11-12T10:21:54.094Z,13.6
2015-11-12T10:22:54.050Z,13.7
2015-11-12T10:23:53.990Z,13.7
2015-11-12T10:24:53.946Z,13.7
2015-11-12T10:25:53.887Z,13.7
2015-11-12T10:26:53.843Z,13.6
2015-11-12T10:27:53.782Z,13.6
2015-11-12T10:28:53.723Z,13.6
2015-11-12T10:29:53.678Z,13.6
2015-11-12T10:30:53.619Z,13.6
2015-11-12T10:31:53.574Z,13.6
2015-11-12T10:32:53.515Z,13.6
2015-11-12T10:33:53.470Z,13.6
2015-11-12T10:34:53.426Z,13.6
2015-11-12T10:35:53.367Z,13.6
2015-11-12T10:36:53.307Z,13.6
2015-11-12T10:37:53.262Z,13.6
2015-11-12T10:38:53.203Z,13.6
2015-11-12T10:39:53.159Z,13.7
2015-11-12T10:40:53.099Z,13.6
2015-11-12T10:41:53.055Z,13.7
2015-11-12T10:42:52.995Z,13.7
2015-11-12T10:43:52.950Z,13.7
2015-11-12T10:44:52.892Z,13.7
2015-11-12T10:45:52.831Z,13.7
2015-11-12T10:46:52.787Z,13.7
2015-11-12T10:47:52.727Z,13.7
2015-11-12T10:48:52.684Z,13.7
2015-11-12T10:49:52.623Z,13.6
2015-11-12T10:50:52.580Z,13.7
2015-11-12T10:51:52.535Z,13.7
2015-11-12T10:52:52.475Z,13.7
2015-11-12T10:53:52.416Z,13.7
2015-11-12T10:54:52.372Z,13.7
2015-11-12T10:55:52.327Z,13.7
2015-11-12T10:56:52.264Z,13.7
2015-11-12T10:57:52.205Z,13.8
2015-11-12T10:58:52.161Z,13.8
2015-11-12T10:59:52.101Z,13.8
2015-11-12T11:00:52.057Z,13.8
2015-11-12T11:01:51.997Z,13.8
2015-11-12T11:02:51.953Z,13.8
2015-11-12T11:03:51.893Z,13.9
2015-11-12T11:04:51.833Z,13.8
2015-11-12T11:05:51.788Z,13.8
2015-11-12T11:06:51.736Z,13.8
2015-11-12T11:07:51.692Z,13.8
2015-11-12T11:08:51.632Z,13.8
2015-11-12T11:09:51.573Z,13.8
2015-11-12T11:10:51.528Z,13.8
2015-11-12T11:11:51.469Z,13.8
2015-11-12T11:12:51.425Z,13.8
2015-11-12T11:13:51.365Z,13.8
2015-11-12T11:14:51.321Z,13.9
2015-11-12T11:15:51.261Z,13.9
2015-11-12T11:16:51.216Z,14
2015-11-12T11:17:51.157Z,14
2015-11-12T11:18:51.113Z,14
2015-11-12T11:19:51.069Z,14
2015-11-12T11:20:51.009Z,14
2015-11-12T11:21:50.949Z,14
2015-11-12T11:22:50.905Z,14
2015-11-12T11:23:50.861Z,14
2015-11-12T11:24:50.801Z,14
2015-11-12T11:25:50.741Z,14
2015-11-12T11:26:50.697Z,14
2015-11-12T11:27:50.638Z,14.1
2015-11-12T11:28:50.593Z,14
2015-11-12T11:29:50.533Z,14.1
2015-11-12T11:30:50.489Z,14.1
2015-11-12T11:31:50.429Z,14
2015-11-12T11:32:50.386Z,14.1
2015-11-12T11:33:50.325Z,14
2015-11-12T11:34:50.282Z,14
2015-11-12T11:35:50.222Z,14
2015-11-12T11:36:50.177Z,14
2015-11-12T11:37:50.118Z,14
2015-11-12T11:38:50.057Z,14
2015-11-12T11:39:50.013Z,14
2015-11-12T11:40:49.969Z,14.1
2015-11-12T11:41:49.909Z,14.1
2015-11-12T11:42:49.850Z,14.2
2015-11-12T11:43:49.806Z,14.1
2015-11-12T11:44:49.762Z,14.2
2015-11-12T11:45:49.701Z,14.2
2015-11-12T11:46:49.658Z,14.1
2015-11-12T11:47:49.599Z,14.1
2015-11-12T11:48:49.537Z,14.2
2015-11-12T11:49:49.493Z,14.2
2015-11-12T11:50:49.450Z,14.2
2015-11-12T11:51:49.390Z,14.3
2015-11-12T11:52:49.346Z,14.2
2015-11-12T11:53:49.286Z,14.2
2015-11-12T11:54:49.242Z,14.2
2015-11-12T11:55:49.182Z,14.2
2015-11-12T11:56:49.138Z,14.2
2015-11-12T11:57:49.078Z,14.1
2015-11-12T11:58:49.022Z,14.1
2015-11-12T11:59:48.978Z,14.2
2015-11-12T12:00:48.918Z,14.1
2015-11-12T12:01:48.874Z,14.1
2015-11-12T12:02:48.814Z,14.1
2015-11-12T12:03:48.770Z,14.1
2015-11-12T12:04:48.710Z,14.1
2015-11-12T12:05:48.666Z,14.1
2015-11-12T12:06:48.607Z,14.1
2015-11-12T12:07:48.562Z,14.1
2015-11-12T12:08:48.503Z,14.1
2015-11-12T12:09:48.459Z,14.1
2015-11-12T12:10:48.399Z,14.1
2015-11-12T12:11:48.355Z,14
2015-11-12T12:12:48.308Z,14.1
2015-11-12T12:13:48.249Z,14.1
2015-11-12T12:14:48.188Z,14.1
2015-11-12T12:15:48.144Z,14.1
2015-11-12T12:16:48.084Z,14.1
2015-11-12T12:17:48.040Z,14.1
2015-11-12T12:18:47.996Z,14.1
2015-11-12T12:19:47.936Z,14.1
2015-11-12T12:20:47.876Z,14.1
2015-11-12T12:21:47.832Z,14.2
2015-11-12T12:22:47.772Z,14.2
2015-11-12T12:23:47.729Z,14.3
2015-11-12T12:24:47.669Z,14.3
2015-11-12T12:25:47.625Z,14.3
2015-11-12T12:26:47.565Z,14.4
2015-11-12T12:27:47.521Z,14.5
2015-11-12T12:28:47.461Z,14.4
2015-11-12T12:29:47.417Z,14.4
2015-11-12T12:30:47.356Z,14.4
2015-11-12T12:31:47.313Z,14.6
2015-11-12T12:32:47.269Z,15
2015-11-12T12:33:47.208Z,16.2
2015-11-12T12:34:47.165Z,16
2015-11-12T12:35:47.105Z,16.6
2015-11-12T12:36:47.061Z,17.7
2015-11-12T12:37:47.001Z,17.5
2015-11-12T12:38:46.956Z,16.7
2015-11-12T12:39:46.913Z,16.6
2015-11-12T12:40:46.852Z,16.8
2015-11-12T12:41:46.809Z,16.8
2015-11-12T12:42:46.765Z,17.1
2015-11-12T12:43:46.705Z,17.2
2015-11-12T12:44:46.661Z,17.3
2015-11-12T12:45:46.617Z,17.8
2015-11-12T12:46:46.588Z,17.8
2015-11-12T12:47:46.513Z,17.5
2015-11-12T12:48:46.484Z,16.5
2015-11-12T12:49:46.424Z,16.7
2015-11-12T12:50:46.364Z,16.4
2015-11-12T12:51:46.321Z,16.4
2015-11-12T12:52:46.261Z,16.2
2015-11-12T12:53:46.216Z,16
2015-11-12T12:54:46.172Z,15.9
2015-11-12T12:55:46.113Z,15.7
2015-11-12T12:56:46.069Z,15.6
2015-11-12T12:57:46.025Z,16
2015-11-12T12:58:45.968Z,16.2
2015-11-12T12:59:45.925Z,15.7
2015-11-12T13:00:46.209Z,15.4
2015-11-12T13:01:45.820Z,16.2
2015-11-12T13:02:45.776Z,15.8
2015-11-12T13:03:45.716Z,15.6
2015-11-12T13:04:45.673Z,15.3
2015-11-12T13:05:45.612Z,15.2
2015-11-12T13:06:45.569Z,15.1
2015-11-12T13:07:45.509Z,15.1
2015-11-12T13:08:45.464Z,14.9
2015-11-12T13:09:45.420Z,14.8
2015-11-12T13:10:45.361Z,14.8
2015-11-12T13:11:45.317Z,14.8
2015-11-12T13:12:45.256Z,14.8
2015-11-12T13:13:45.213Z,14.8
2015-11-12T13:14:45.150Z,15
2015-11-12T13:15:45.105Z,15.3
2015-11-12T13:16:45.062Z,16
2015-11-12T13:17:45.002Z,16.1
2015-11-12T13:18:44.958Z,15.8
2015-11-12T13:19:44.914Z,15.9
2015-11-12T13:20:44.854Z,15.6
2015-11-12T13:21:44.810Z,15.6